Time;durP1;ratioP1;P1;durP2;ratioP2;P2;SDS_P1;SDS_P2;PMS_P1;PMS_P2;Temp;Humidity;BMP_temperature;BMP_pressure;BME280_temperature;BME280_humidity;BME280_pressure;Samples;Min_cycle;Max_cycle;Signal;HPM_P1;HPM_P2
2023/12/15 00:01:03;;;;;;;20.03;9.70;;;6.20;99.90;;;;;;5072032;28;20270;-68
2023/12/15 00:03:29;;;;;;;21.17;10.20;;;6.20;99.90;;;;;;5072072;28;20171;-69
2023/12/15 00:05:57;;;;;;;17.30;10.10;;;6.30;99.90;;;;;;5072152;28;20170;-69
2023/12/15 00:08:23;;;;;;;19.03;10.10;;;6.30;99.90;;;;;;5072064;28;20482;-69
2023/12/15 00:10:48;;;;;;;11.97;9.33;;;6.40;99.90;;;;;;5071665;28;20424;-69
2023/12/15 00:13:14;;;;;;;17.50;10.33;;;6.40;99.90;;;;;;5070749;28;20193;-68
2023/12/15 00:15:39;;;;;;;17.00;9.73;;;6.40;99.90;;;;;;5072096;28;20170;-69
2023/12/15 00:18:05;;;;;;;18.63;9.87;;;6.50;99.90;;;;;;5071998;28;20706;-69
2023/12/15 00:20:30;;;;;;;13.30;8.70;;;6.60;99.90;;;;;;5071711;28;20246;-68
2023/12/15 00:22:56;;;;;;;14.07;9.13;;;6.50;99.90;;;;;;5070422;28;20174;-68
2023/12/15 00:25:21;;;;;;;16.60;9.80;;;6.60;99.90;;;;;;5071971;28;20638;-69
2023/12/15 00:27:48;;;;;;;16.43;10.03;;;6.60;99.90;;;;;;5071865;28;20664;-69
2023/12/15 00:30:14;;;;;;;23.63;10.20;;;6.60;99.90;;;;;;5071739;28;20190;-69
2023/12/15 00:32:40;;;;;;;14.30;9.23;;;6.60;99.90;;;;;;5071643;28;20446;-68
2023/12/15 00:35:07;;;;;;;19.07;9.90;;;6.60;99.90;;;;;;5071786;28;20479;-68
2023/12/15 00:37:32;;;;;;;24.20;10.50;;;6.60;99.90;;;;;;5071860;28;20201;-68
2023/12/15 00:39:58;;;;;;;18.27;9.73;;;6.60;99.90;;;;;;5071652;28;20409;-69
2023/12/15 00:42:24;;;;;;;15.43;10.30;;;6.70;99.90;;;;;;5071594;28;20197;-68
2023/12/15 00:44:49;;;;;;;17.60;10.70;;;6.70;99.90;;;;;;5071561;28;20166;-69
2023/12/15 00:47:15;;;;;;;18.33;10.13;;;6.60;99.90;;;;;;5071237;28;20232;-70
2023/12/15 00:49:41;;;;;;;18.73;10.20;;;6.70;99.90;;;;;;5071473;28;20173;-69
2023/12/15 00:52:06;;;;;;;15.43;10.80;;;6.60;99.90;;;;;;5071468;28;20657;-69
2023/12/15 00:54:32;;;;;;;16.70;10.57;;;6.50;99.90;;;;;;5071538;28;20421;-68
2023/12/15 00:56:57;;;;;;;16.80;11.00;;;6.50;99.90;;;;;;5071673;28;20193;-69
2023/12/15 00:59:23;;;;;;;20.57;10.40;;;6.50;99.90;;;;;;5071503;28;20544;-69
2023/12/15 01:01:48;;;;;;;16.37;10.30;;;6.50;99.90;;;;;;5071488;28;20277;-69
2023/12/15 01:04:14;;;;;;;18.03;12.27;;;6.50;99.90;;;;;;5071444;28;20252;-69
2023/12/15 01:06:39;;;;;;;18.10;10.77;;;6.50;99.90;;;;;;5071413;28;20166;-69
2023/12/15 01:09:05;;;;;;;18.40;10.57;;;6.60;99.90;;;;;;5071330;28;20272;-69
2023/12/15 01:11:31;;;;;;;20.70;11.20;;;6.60;99.90;;;;;;5069937;28;20198;-68
2023/12/15 01:13:56;;;;;;;19.00;10.30;;;6.60;99.90;;;;;;5071540;28;20427;-68
2023/12/15 01:16:22;;;;;;;19.47;11.00;;;6.60;99.90;;;;;;5071589;28;20208;-69
2023/12/15 01:18:47;;;;;;;18.27;11.40;;;6.70;99.90;;;;;;5069882;28;20185;-69
2023/12/15 01:21:13;;;;;;;16.33;10.57;;;6.70;99.90;;;;;;5072056;28;20190;-67
2023/12/15 01:23:38;;;;;;;18.93;11.33;;;6.80;99.90;;;;;;5073659;28;20180;-67
2023/12/15 01:26:04;;;;;;;19.20;10.23;;;6.80;99.90;;;;;;5075164;28;20544;-69
2023/12/15 01:28:30;;;;;;;16.00;9.50;;;6.90;99.90;;;;;;5075006;28;20210;-68
2023/12/15 01:30:56;;;;;;;20.13;10.37;;;6.80;99.90;;;;;;5074825;28;20430;-70
2023/12/15 01:33:21;;;;;;;19.43;11.40;;;6.80;99.90;;;;;;5074928;28;20162;-68
2023/12/15 01:35:47;;;;;;;23.73;10.97;;;6.70;99.90;;;;;;5074920;28;20601;-68
2023/12/15 01:38:13;;;;;;;19.10;10.23;;;6.80;99.90;;;;;;5073632;28;20174;-68
2023/12/15 01:40:38;;;;;;;26.83;10.90;;;6.80;99.90;;;;;;5074405;28;20430;-69
2023/12/15 01:43:04;;;;;;;15.50;9.73;;;6.80;99.90;;;;;;5074737;28;20172;-69
2023/12/15 01:45:29;;;;;;;21.47;12.97;;;6.80;99.90;;;;;;5074780;28;20201;-68
2023/12/15 01:47:55;;;;;;;20.33;9.53;;;6.80;99.90;;;;;;5074806;28;20684;-68
2023/12/15 01:50:21;;;;;;;37.67;13.03;;;6.80;99.90;;;;;;5074474;28;20257;-69
2023/12/15 01:52:46;;;;;;;15.37;9.50;;;6.80;99.90;;;;;;5074386;28;20952;-68
2023/12/15 01:55:12;;;;;;;25.10;11.13;;;6.90;99.90;;;;;;5074681;28;20308;-68
2023/12/15 01:57:38;;;;;;;11.77;8.83;;;7.00;99.90;;;;;;5074539;28;20176;-68
2023/12/15 02:00:08;;;;;;;15.77;10.90;;;7.00;99.90;;;;;;5074407;28;20672;-68
2023/12/15 02:02:34;;;;;;;14.20;9.53;;;7.00;99.90;;;;;;5073067;28;20201;-69
2023/12/15 02:05:00;;;;;;;17.00;9.43;;;7.00;99.90;;;;;;5074379;28;20404;-68
2023/12/15 02:07:26;;;;;;;20.33;10.50;;;7.00;99.90;;;;;;5074372;28;20190;-68
2023/12/15 02:09:51;;;;;;;16.83;11.10;;;6.90;99.90;;;;;;5074158;28;20405;-68
2023/12/15 02:12:17;;;;;;;19.60;11.00;;;6.90;99.90;;;;;;5074184;28;20190;-68
2023/12/15 02:14:43;;;;;;;19.03;11.33;;;6.90;99.90;;;;;;5074259;28;20695;-69
2023/12/15 02:17:11;;;;;;;17.20;11.27;;;6.90;99.90;;;;;;5074124;28;20224;-68
2023/12/15 02:19:36;;;;;;;28.40;11.70;;;6.90;99.90;;;;;;5073896;28;20408;-69
2023/12/15 02:22:02;;;;;;;19.23;11.90;;;6.90;99.90;;;;;;5073996;28;20997;-68
2023/12/15 02:24:27;;;;;;;27.50;12.20;;;7.00;99.90;;;;;;5074137;28;20171;-68
2023/12/15 02:26:54;;;;;;;16.93;11.70;;;6.90;99.90;;;;;;5073982;28;20194;-68
2023/12/15 02:29:19;;;;;;;16.50;11.50;;;6.90;99.90;;;;;;5073585;28;20244;-68
2023/12/15 02:31:45;;;;;;;21.20;11.90;;;7.00;99.90;;;;;;5073386;28;20425;-68
2023/12/15 02:34:11;;;;;;;22.37;11.90;;;6.90;99.90;;;;;;5072896;28;20660;-69
2023/12/15 02:36:36;;;;;;;18.77;10.67;;;7.00;99.90;;;;;;5073993;28;20196;-68
2023/12/15 02:39:05;;;;;;;32.37;13.37;;;7.10;99.90;;;;;;5073636;28;20170;-68
2023/12/15 02:41:31;;;;;;;22.63;12.90;;;7.10;99.90;;;;;;5072434;28;20251;-69
2023/12/15 02:43:57;;;;;;;21.43;14.07;;;7.10;99.90;;;;;;5073594;28;20412;-68
2023/12/15 02:46:22;;;;;;;23.97;12.30;;;7.10;99.90;;;;;;5073609;28;20408;-68
2023/12/15 02:48:48;;;;;;;29.63;13.20;;;7.10;99.90;;;;;;5073343;28;20205;-68
2023/12/15 02:51:30;;;;;;;20.03;11.03;;;7.20;99.90;;;;;;5073444;28;20650;-68
2023/12/15 02:53:58;;;;;;;22.57;13.00;;;7.10;99.90;;;;;;5073295;28;20182;-68
2023/12/15 02:56:23;;;;;;;20.80;11.93;;;7.10;99.90;;;;;;5073446;28;20875;-69
2023/12/15 02:58:49;;;;;;;20.23;10.77;;;7.00;99.90;;;;;;5073249;28;20418;-68
2023/12/15 03:01:15;;;;;;;17.40;11.30;;;7.00;99.90;;;;;;5073177;28;20194;-68
2023/12/15 03:03:40;;;;;;;24.43;13.07;;;7.00;99.90;;;;;;5073224;28;20174;-68
2023/12/15 03:06:06;;;;;;;22.33;12.57;;;7.00;99.90;;;;;;5073265;28;20443;-69
2023/12/15 03:08:32;;;;;;;19.90;12.53;;;7.10;99.90;;;;;;5071889;28;20227;-69
2023/12/15 03:10:57;;;;;;;30.13;12.87;;;7.00;99.90;;;;;;5072957;28;20195;-70
2023/12/15 03:13:28;;;;;;;24.33;13.23;;;6.90;99.90;;;;;;5073053;28;20174;-69
2023/12/15 03:15:53;;;;;;;16.33;11.37;;;6.80;99.90;;;;;;5073062;28;20243;-69
2023/12/15 03:18:19;;;;;;;22.13;12.60;;;6.90;99.90;;;;;;5073044;28;20408;-69
2023/12/15 03:20:45;;;;;;;20.03;12.13;;;6.90;99.90;;;;;;5072734;28;20197;-69
2023/12/15 03:23:10;;;;;;;19.30;11.70;;;6.90;99.90;;;;;;5072843;28;20170;-68
2023/12/15 03:25:36;;;;;;;16.43;11.80;;;7.00;99.90;;;;;;5072921;28;20174;-69
2023/12/15 03:28:02;;;;;;;19.17;11.20;;;6.90;99.90;;;;;;5072723;28;20255;-69
2023/12/15 03:30:27;;;;;;;24.27;12.17;;;6.80;99.90;;;;;;5072487;28;20205;-68
2023/12/15 03:32:53;;;;;;;21.97;12.17;;;6.80;99.90;;;;;;5072674;28;20658;-69
2023/12/15 03:35:18;;;;;;;20.07;11.90;;;6.70;99.90;;;;;;5072761;28;20174;-69
2023/12/15 03:37:45;;;;;;;17.83;10.97;;;6.80;99.90;;;;;;5072563;28;20656;-70
2023/12/15 03:40:11;;;;;;;22.10;12.40;;;6.90;99.90;;;;;;5072651;28;20582;-69
2023/12/15 03:42:37;;;;;;;14.83;10.40;;;7.00;99.90;;;;;;5072439;28;20421;-69
2023/12/15 03:45:04;;;;;;;18.33;11.83;;;7.00;99.90;;;;;;5072103;28;20467;-69
2023/12/15 03:47:29;;;;;;;19.73;11.43;;;7.10;99.90;;;;;;5072462;28;20201;-68
2023/12/15 03:49:56;;;;;;;17.67;11.87;;;7.10;99.90;;;;;;5072195;28;20396;-69
2023/12/15 03:52:21;;;;;;;19.60;11.63;;;7.20;99.90;;;;;;5072115;28;20243;-69
2023/12/15 03:54:47;;;;;;;18.13;11.17;;;7.20;99.90;;;;;;5072359;28;20416;-69
2023/12/15 03:57:12;;;;;;;16.77;11.13;;;7.30;99.90;;;;;;5072320;28;20209;-69
2023/12/15 03:59:40;;;;;;;18.73;10.80;;;7.30;99.90;;;;;;5072000;28;20245;-69
2023/12/15 04:02:11;;;;;;;16.97;9.93;;;7.30;99.90;;;;;;5072072;28;20193;-69
2023/12/15 04:04:36;;;;;;;20.23;11.00;;;7.40;99.90;;;;;;5072172;28;20400;-70
2023/12/15 04:07:02;;;;;;;15.90;10.23;;;7.40;99.90;;;;;;5072114;28;20408;-69
2023/12/15 04:09:27;;;;;;;25.50;10.60;;;7.40;99.90;;;;;;5072022;28;20208;-69
2023/12/15 04:11:53;;;;;;;19.03;11.30;;;7.40;99.90;;;;;;5071959;28;20225;-69
2023/12/15 04:14:18;;;;;;;16.00;11.17;;;7.50;99.90;;;;;;5071936;28;20162;-70
2023/12/15 04:16:44;;;;;;;12.50;9.37;;;7.50;99.90;;;;;;5070859;28;20170;-69
2023/12/15 04:19:09;;;;;;;13.80;9.60;;;7.50;99.90;;;;;;5071881;28;20661;-69
2023/12/15 04:21:35;;;;;;;20.87;10.90;;;7.50;99.90;;;;;;5071936;28;20560;-69
2023/12/15 04:24:00;;;;;;;16.13;10.30;;;7.50;99.90;;;;;;5070824;28;20162;-70
2023/12/15 04:26:26;;;;;;;23.60;11.07;;;7.50;99.90;;;;;;5071914;28;20166;-69
2023/12/15 04:28:53;;;;;;;14.70;11.00;;;7.50;99.90;;;;;;5071569;28;20227;-69
2023/12/15 04:31:18;;;;;;;16.33;9.40;;;7.40;99.90;;;;;;5071812;28;20240;-69
2023/12/15 04:33:44;;;;;;;13.67;9.50;;;7.50;99.90;;;;;;5071582;28;20404;-69
2023/12/15 04:36:11;;;;;;;14.10;10.10;;;7.50;99.90;;;;;;5071858;28;20645;-68
2023/12/15 04:38:36;;;;;;;17.73;9.90;;;7.50;99.90;;;;;;5070612;28;20671;-69
2023/12/15 04:41:02;;;;;;;16.70;9.27;;;7.50;99.90;;;;;;5071456;28;20420;-69
2023/12/15 04:43:28;;;;;;;18.53;9.63;;;7.60;99.90;;;;;;5071633;28;20400;-70
2023/12/15 04:45:55;;;;;;;14.00;8.73;;;7.60;99.90;;;;;;5071850;28;20190;-69
2023/12/15 04:48:21;;;;;;;18.23;10.80;;;7.60;99.90;;;;;;5070305;28;20878;-69
2023/12/15 04:50:46;;;;;;;15.20;10.17;;;7.70;99.90;;;;;;5071500;28;20420;-69
2023/12/15 04:53:12;;;;;;;11.40;8.40;;;7.70;99.90;;;;;;5071484;28;20182;-69
2023/12/15 04:55:37;;;;;;;16.03;9.70;;;7.70;99.90;;;;;;5072005;28;20170;-69
2023/12/15 04:58:03;;;;;;;16.23;10.33;;;7.70;99.90;;;;;;5075685;28;20227;-69
2023/12/15 05:00:28;;;;;;;17.73;9.60;;;7.70;99.90;;;;;;5075431;28;20522;-69
2023/12/15 05:02:54;;;;;;;13.77;8.60;;;7.60;99.90;;;;;;5075574;28;20191;-69
2023/12/15 05:05:20;;;;;;;18.40;9.93;;;7.50;99.90;;;;;;5075627;28;20211;-70
2023/12/15 05:07:46;;;;;;;17.87;9.00;;;7.40;99.90;;;;;;5075621;28;20228;-70
2023/12/15 05:10:11;;;;;;;19.60;9.10;;;7.50;99.90;;;;;;5075361;28;20694;-69
2023/12/15 05:12:37;;;;;;;10.07;8.10;;;7.50;99.90;;;;;;5075275;28;20506;-69
2023/12/15 05:15:04;;;;;;;14.30;9.20;;;7.50;99.90;;;;;;5075401;28;20163;-69
2023/12/15 05:17:30;;;;;;;12.43;8.50;;;7.50;99.90;;;;;;5075310;28;20406;-69
2023/12/15 05:19:55;;;;;;;10.80;7.80;;;7.40;99.90;;;;;;5075130;28;20887;-71
2023/12/15 05:22:21;;;;;;;12.60;8.27;;;7.50;99.90;;;;;;5073824;28;20466;-69
2023/12/15 05:24:46;;;;;;;13.37;8.47;;;7.50;99.90;;;;;;5075127;28;20171;-69
2023/12/15 05:27:12;;;;;;;16.13;8.53;;;7.50;99.90;;;;;;5075020;28;20170;-69
2023/12/15 05:29:44;;;;;;;15.50;9.03;;;7.50;99.90;;;;;;5074966;28;20634;-69
2023/12/15 05:32:10;;;;;;;12.43;8.07;;;7.50;99.90;;;;;;5074883;28;20178;-69
2023/12/15 05:34:36;;;;;;;11.17;7.83;;;7.60;99.90;;;;;;5074991;28;20473;-69
2023/12/15 05:37:01;;;;;;;9.93;7.70;;;7.60;99.90;;;;;;5075029;28;20223;-69
2023/12/15 05:39:27;;;;;;;10.00;7.90;;;7.70;99.90;;;;;;5074492;28;20178;-69
2023/12/15 05:41:52;;;;;;;13.37;8.50;;;7.80;99.90;;;;;;5074741;28;20197;-69
2023/12/15 05:44:18;;;;;;;10.07;7.10;;;7.80;99.90;;;;;;5074790;28;20181;-69
2023/12/15 05:46:43;;;;;;;11.90;7.67;;;7.90;99.90;;;;;;5074688;28;20173;-69
2023/12/15 05:49:10;;;;;;;13.40;7.80;;;7.90;99.90;;;;;;5074448;28;20208;-69
2023/12/15 05:51:36;;;;;;;14.50;7.77;;;7.90;99.90;;;;;;5074677;28;20665;-69
2023/12/15 05:54:01;;;;;;;10.73;8.30;;;7.90;99.90;;;;;;5074447;28;20422;-69
2023/12/15 05:56:27;;;;;;;11.80;7.70;;;7.70;99.90;;;;;;5074758;28;20240;-69
2023/12/15 05:58:52;;;;;;;10.67;7.47;;;7.70;99.90;;;;;;5074430;28;20645;-69
2023/12/15 06:01:18;;;;;;;9.97;8.20;;;7.60;99.90;;;;;;5074531;28;20232;-69
2023/12/15 06:03:44;;;;;;;14.33;6.13;;;7.60;99.90;;;;;;5074403;28;20170;-69
2023/12/15 06:06:12;;;;;;;13.07;7.93;;;7.70;99.90;;;;;;5074585;28;20224;-69
2023/12/15 06:08:37;;;;;;;11.70;8.17;;;7.70;99.90;;;;;;5074153;28;20501;-68
2023/12/15 06:11:03;;;;;;;10.60;7.90;;;7.70;99.90;;;;;;5072745;28;20433;-69
2023/12/15 06:13:29;;;;;;;10.10;8.17;;;7.70;99.90;;;;;;5074219;28;20503;-69
2023/12/15 06:15:54;;;;;;;9.97;7.30;;;7.80;99.90;;;;;;5074416;28;20169;-68
2023/12/15 06:18:20;;;;;;;11.17;8.27;;;7.80;99.90;;;;;;5074284;28;20672;-69
2023/12/15 06:20:45;;;;;;;14.30;9.73;;;7.90;99.90;;;;;;5074037;28;20205;-68
2023/12/15 06:23:11;;;;;;;11.20;8.57;;;7.90;99.90;;;;;;5074039;28;20220;-69
2023/12/15 06:25:36;;;;;;;15.83;10.50;;;7.70;99.90;;;;;;5072905;28;20177;-68
2023/12/15 06:28:02;;;;;;;19.90;10.30;;;7.70;99.90;;;;;;5074032;28;20193;-68
2023/12/15 06:30:32;;;;;;;16.00;9.83;;;7.80;99.90;;;;;;5072489;28;20162;-69
2023/12/15 06:32:57;;;;;;;14.83;9.97;;;7.80;99.90;;;;;;5074103;28;20165;-68
2023/12/15 06:35:23;;;;;;;19.27;11.40;;;7.90;99.90;;;;;;5073670;28;20766;-70
2023/12/15 06:37:50;;;;;;;15.60;10.10;;;8.00;99.90;;;;;;5073817;28;20171;-68
2023/12/15 06:40:15;;;;;;;14.20;8.90;;;7.90;99.90;;;;;;5073644;28;20166;-69
2023/12/15 06:42:41;;;;;;;12.67;9.47;;;8.00;99.90;;;;;;5073610;28;20420;-68
2023/12/15 06:45:08;;;;;;;12.20;8.50;;;8.10;99.90;;;;;;5073630;28;20225;-68
2023/12/15 06:47:36;;;;;;;17.23;10.50;;;8.10;99.90;;;;;;5073622;28;20182;-69
2023/12/15 06:50:02;;;;;;;17.63;10.30;;;8.00;99.90;;;;;;5073485;28;20393;-69
2023/12/15 06:52:27;;;;;;;16.80;11.33;;;8.10;99.90;;;;;;5073277;28;20420;-69
2023/12/15 06:54:53;;;;;;;21.83;11.43;;;8.10;99.90;;;;;;5073510;28;20185;-68
2023/12/15 06:57:18;;;;;;;15.50;10.20;;;8.20;99.90;;;;;;5073219;28;20645;-69
2023/12/15 06:59:44;;;;;;;15.63;10.57;;;8.20;99.90;;;;;;5073228;28;20166;-68
2023/12/15 07:02:09;;;;;;;18.77;11.80;;;8.20;99.90;;;;;;5071718;28;20194;-70
2023/12/15 07:04:35;;;;;;;15.53;10.53;;;8.20;99.90;;;;;;5073335;28;20695;-69
2023/12/15 07:07:01;;;;;;;12.93;9.80;;;8.30;99.90;;;;;;5071961;28;20162;-68
2023/12/15 07:09:26;;;;;;;13.97;10.27;;;8.30;99.90;;;;;;5073008;28;20459;-69
2023/12/15 07:11:52;;;;;;;19.80;11.27;;;8.30;99.90;;;;;;5073041;28;20193;-69
2023/12/15 07:14:17;;;;;;;18.03;10.83;;;8.40;99.90;;;;;;5073149;28;20169;-68
2023/12/15 07:16:43;;;;;;;23.70;12.33;;;8.40;99.90;;;;;;5073141;28;20319;-68
2023/12/15 07:19:08;;;;;;;22.33;12.97;;;8.40;99.90;;;;;;5072189;28;20251;-69
2023/12/15 07:21:34;;;;;;;30.97;19.07;;;8.40;99.90;;;;;;5072854;28;20243;-69
2023/12/15 07:23:59;;;;;;;28.00;14.77;;;8.40;99.90;;;;;;5072963;28;20530;-68
2023/12/15 07:26:25;;;;;;;20.43;13.23;;;8.50;99.90;;;;;;5072930;28;20173;-68
2023/12/15 07:28:50;;;;;;;20.10;11.40;;;8.50;99.90;;;;;;5072612;28;20209;-69
2023/12/15 07:31:16;;;;;;;18.00;11.70;;;8.60;99.90;;;;;;5072770;28;20672;-70
2023/12/15 07:33:41;;;;;;;23.53;11.70;;;8.50;99.90;;;;;;5072729;28;20566;-68
2023/12/15 07:36:08;;;;;;;24.80;12.73;;;8.50;99.90;;;;;;5071427;28;20162;-68
2023/12/15 07:38:33;;;;;;;21.53;12.50;;;8.40;99.90;;;;;;5072676;28;20166;-68
2023/12/15 07:40:58;;;;;;;24.63;14.90;;;8.40;99.90;;;;;;5072365;28;20432;-69
2023/12/15 07:43:24;;;;;;;23.23;13.03;;;8.40;99.90;;;;;;5072385;28;20196;-69
2023/12/15 07:45:49;;;;;;;21.63;13.13;;;8.40;99.90;;;;;;5072558;28;20166;-68
2023/12/15 07:48:15;;;;;;;24.10;12.27;;;8.50;99.90;;;;;;5072410;28;20722;-68
2023/12/15 07:50:40;;;;;;;33.00;14.03;;;8.60;99.90;;;;;;5072164;28;20178;-68
2023/12/15 07:53:06;;;;;;;26.27;12.77;;;8.50;99.90;;;;;;5072229;28;20698;-68
2023/12/15 07:55:31;;;;;;;21.70;13.83;;;8.60;99.90;;;;;;5072468;28;20162;-69
2023/12/15 07:57:57;;;;;;;25.70;14.23;;;8.60;99.90;;;;;;5072364;28;20170;-69
2023/12/15 08:00:22;;;;;;;26.83;14.77;;;8.70;99.90;;;;;;5071984;28;20564;-69
2023/12/15 08:02:49;;;;;;;23.30;14.10;;;8.70;99.90;;;;;;5072174;28;20652;-69
2023/12/15 08:05:14;;;;;;;28.43;15.00;;;8.70;99.90;;;;;;5072223;28;20166;-68
2023/12/15 08:07:42;;;;;;;29.00;14.80;;;8.80;99.90;;;;;;5072038;28;20508;-68
2023/12/15 08:10:08;;;;;;;26.70;12.97;;;8.90;99.90;;;;;;5071921;28;20170;-68
2023/12/15 08:12:34;;;;;;;27.97;15.10;;;8.90;99.90;;;;;;5070652;28;20464;-68
2023/12/15 08:14:59;;;;;;;31.27;15.60;;;8.90;99.90;;;;;;5072060;28;20489;-69
2023/12/15 08:17:25;;;;;;;36.80;21.10;;;8.90;99.90;;;;;;5071928;28;20170;-68
2023/12/15 08:19:51;;;;;;;28.53;14.57;;;8.90;99.90;;;;;;5071761;28;20165;-70
2023/12/15 08:22:16;;;;;;;28.13;15.57;;;9.00;99.90;;;;;;5071854;28;20190;-68
2023/12/15 08:24:42;;;;;;;21.87;15.40;;;8.90;99.90;;;;;;5071956;28;20169;-69
2023/12/15 08:27:08;;;;;;;33.67;16.90;;;9.00;99.90;;;;;;5072039;28;20159;-67
2023/12/15 08:29:34;;;;;;;22.90;15.60;;;9.00;99.90;;;;;;5071685;28;20484;-68
2023/12/15 08:31:59;;;;;;;26.67;14.40;;;9.10;99.90;;;;;;5071714;28;20557;-69
2023/12/15 08:34:26;;;;;;;23.77;14.50;;;9.10;99.90;;;;;;5071811;28;20176;-69
2023/12/15 08:36:52;;;;;;;26.47;15.50;;;9.20;99.90;;;;;;5071977;28;20158;-68
2023/12/15 08:39:18;;;;;;;24.07;14.27;;;9.20;99.90;;;;;;5071632;28;20434;-69
2023/12/15 08:41:43;;;;;;;26.97;13.93;;;9.20;99.90;;;;;;5071767;28;20186;-68
2023/12/15 08:44:09;;;;;;;27.77;14.67;;;9.20;99.90;;;;;;5071569;28;20205;-69
2023/12/15 08:46:35;;;;;;;26.00;13.90;;;9.20;99.90;;;;;;5071859;28;20170;-68
2023/12/15 08:49:01;;;;;;;25.27;15.00;;;9.20;99.90;;;;;;5071533;28;20672;-68
2023/12/15 08:51:27;;;;;;;23.37;14.57;;;9.20;99.90;;;;;;5071627;28;20205;-68
2023/12/15 08:53:53;;;;;;;28.27;14.70;;;9.30;99.90;;;;;;5071511;28;20423;-67
2023/12/15 08:56:18;;;;;;;25.83;11.70;;;9.30;99.90;;;;;;5071691;28;20405;-68
2023/12/15 08:58:44;;;;;;;31.53;13.83;;;9.40;99.90;;;;;;5071115;28;20292;-69
2023/12/15 09:01:09;;;;;;;28.00;13.90;;;9.40;99.90;;;;;;5071355;28;20221;-68
2023/12/15 09:03:36;;;;;;;23.73;15.07;;;9.40;99.90;;;;;;5071458;28;20224;-69
2023/12/15 09:06:02;;;;;;;28.67;14.20;;;9.50;99.90;;;;;;5071590;28;20573;-69
2023/12/15 09:08:27;;;;;;;27.53;14.27;;;9.60;99.90;;;;;;5071431;28;20444;-68
2023/12/15 09:10:53;;;;;;;25.17;12.93;;;9.60;99.90;;;;;;5071259;28;20213;-68
2023/12/15 09:13:19;;;;;;;31.17;14.90;;;9.70;99.90;;;;;;5071462;28;20554;-69
2023/12/15 09:15:45;;;;;;;25.80;14.30;;;9.70;99.90;;;;;;5071544;28;20707;-69
2023/12/15 09:18:10;;;;;;;16.10;11.93;;;9.70;99.90;;;;;;5071557;28;20400;-68
2023/12/15 09:20:36;;;;;;;21.80;12.63;;;9.80;99.90;;;;;;5071028;28;20163;-70
2023/12/15 09:23:11;;;;;;;24.53;13.20;;;9.70;99.90;;;;;;5071280;28;20168;-69
2023/12/15 09:25:37;;;;;;;22.23;13.50;;;9.70;99.90;;;;;;5071411;28;20577;-69
2023/12/15 09:28:05;;;;;;;23.30;12.70;;;9.60;99.90;;;;;;5071340;28;20444;-69
2023/12/15 09:30:31;;;;;;;28.17;13.83;;;9.60;99.90;;;;;;5071076;28;20190;-69
2023/12/15 09:32:56;;;;;;;19.50;12.07;;;9.60;99.90;;;;;;5071166;28;20400;-69
2023/12/15 09:35:22;;;;;;;25.97;12.50;;;9.60;99.90;;;;;;5071370;28;20402;-69
2023/12/15 09:37:47;;;;;;;22.27;12.03;;;9.60;99.90;;;;;;5071258;28;20204;-69
2023/12/15 09:40:14;;;;;;;25.30;13.93;;;9.70;99.90;;;;;;5071230;28;20162;-68
2023/12/15 09:42:40;;;;;;;22.57;13.40;;;9.60;99.90;;;;;;5071684;28;20194;-68
2023/12/15 09:45:06;;;;;;;27.90;13.07;;;9.70;99.90;;;;;;5074882;28;20403;-69
2023/12/15 09:47:36;;;;;;;32.93;14.40;;;9.70;99.90;;;;;;5074705;28;21300;-68
2023/12/15 09:50:04;;;;;;;20.60;14.47;;;9.80;99.90;;;;;;5074829;28;20925;-68
2023/12/15 09:52:32;;;;;;;30.27;17.70;;;9.80;99.90;;;;;;5074765;28;20995;-68
2023/12/15 09:54:59;;;;;;;19.37;12.20;;;9.90;99.90;;;;;;5074704;28;20513;-69
2023/12/15 09:57:24;;;;;;;26.13;14.47;;;10.00;99.90;;;;;;5074660;28;20491;-70
2023/12/15 09:59:51;;;;;;;25.53;13.93;;;10.10;99.90;;;;;;5074332;28;20484;-69
2023/12/15 10:02:18;;;;;;;24.33;14.30;;;10.20;99.90;;;;;;5074621;28;20214;-69
2023/12/15 10:04:44;;;;;;;28.67;15.47;;;10.20;99.90;;;;;;5074518;28;20915;-68
2023/12/15 10:07:10;;;;;;;26.27;14.90;;;10.10;99.90;;;;;;5074401;28;20404;-69
2023/12/15 10:09:39;;;;;;;21.60;13.50;;;10.00;99.90;;;;;;5074166;28;20202;-69
2023/12/15 10:12:08;;;;;;;23.80;14.30;;;10.00;99.90;;;;;;5074252;28;20434;-69
2023/12/15 10:14:38;;;;;;;23.10;13.33;;;10.10;99.90;;;;;;5074298;28;20436;-69
2023/12/15 10:17:11;;;;;;;22.50;13.10;;;10.30;99.90;;;;;;5074297;28;20771;-69
2023/12/15 10:19:37;;;;;;;32.27;14.23;;;10.20;99.90;;;;;;5074086;28;20420;-69
2023/12/15 10:22:04;;;;;;;27.67;15.13;;;10.10;99.90;;;;;;5072706;28;20433;-69
2023/12/15 10:24:32;;;;;;;23.20;13.87;;;10.10;99.90;;;;;;5074147;28;20432;-69
2023/12/15 10:26:59;;;;;;;22.47;13.70;;;10.20;99.90;;;;;;5074106;28;20795;-69
2023/12/15 10:29:25;;;;;;;23.13;12.80;;;10.30;99.90;;;;;;5073822;28;20977;-69
2023/12/15 10:31:51;;;;;;;24.27;13.03;;;10.40;99.90;;;;;;5073942;28;20424;-69
2023/12/15 10:34:17;;;;;;;27.90;14.27;;;10.50;99.90;;;;;;5074024;28;20211;-69
2023/12/15 10:36:47;;;;;;;21.27;12.67;;;10.60;99.90;;;;;;5072638;28;20404;-71
2023/12/15 10:39:13;;;;;;;24.00;13.97;;;10.70;99.90;;;;;;5073756;28;20773;-68
2023/12/15 10:41:40;;;;;;;20.90;13.50;;;10.70;99.90;;;;;;5073796;28;20424;-69
2023/12/15 10:44:06;;;;;;;20.57;13.70;;;10.70;99.90;;;;;;5073721;28;20409;-70
2023/12/15 10:46:33;;;;;;;19.73;12.80;;;10.70;99.90;;;;;;5073738;28;20499;-69
2023/12/15 10:48:59;;;;;;;31.57;14.10;;;10.70;99.90;;;;;;5073464;28;20451;-69
2023/12/15 10:51:26;;;;;;;25.30;13.83;;;10.60;99.90;;;;;;5073595;28;20456;-68
2023/12/15 10:53:53;;;;;;;22.23;13.57;;;10.60;99.90;;;;;;5072366;28;20423;-69
2023/12/15 10:56:19;;;;;;;25.80;13.57;;;10.70;99.90;;;;;;5073655;28;20513;-69
2023/12/15 10:58:45;;;;;;;26.80;13.67;;;10.70;99.90;;;;;;5072226;28;20412;-69
2023/12/15 11:01:12;;;;;;;25.00;12.50;;;10.60;99.90;;;;;;5073407;28;20439;-69
2023/12/15 11:03:38;;;;;;;24.20;15.17;;;10.60;99.90;;;;;;5073325;28;20404;-70
2023/12/15 11:06:05;;;;;;;28.53;13.43;;;10.60;99.90;;;;;;5073345;28;20404;-69
2023/12/15 11:08:31;;;;;;;25.00;13.50;;;10.70;99.90;;;;;;5072921;28;20444;-69
2023/12/15 11:10:57;;;;;;;24.70;13.90;;;10.80;99.90;;;;;;5073064;28;20474;-69
2023/12/15 11:13:51;;;;;;;25.80;14.27;;;10.70;99.90;;;;;;5073116;28;20400;-68
2023/12/15 11:16:18;;;;;;;28.67;15.47;;;10.80;99.90;;;;;;5073205;28;20163;-69
2023/12/15 11:18:43;;;;;;;25.37;13.97;;;10.80;99.90;;;;;;5071808;28;20492;-69
2023/12/15 11:21:10;;;;;;;19.23;12.73;;;10.90;99.90;;;;;;5072714;28;20994;-69
2023/12/15 11:23:55;;;;;;;31.97;14.03;;;10.80;99.90;;;;;;5072926;28;20189;-70
2023/12/15 11:26:25;;;;;;;23.27;13.60;;;10.90;99.90;;;;;;5072698;28;20404;-70
2023/12/15 11:28:51;;;;;;;26.23;13.47;;;10.90;99.90;;;;;;5072568;28;20451;-70
2023/12/15 11:31:23;;;;;;;28.07;13.90;;;11.00;99.90;;;;;;5072782;28;20462;-70
2023/12/15 11:33:49;;;;;;;21.53;12.47;;;11.10;99.90;;;;;;5072650;28;20493;-70
2023/12/15 11:36:15;;;;;;;21.20;12.07;;;11.10;99.90;;;;;;5072727;28;20515;-70
2023/12/15 11:38:42;;;;;;;24.90;13.57;;;11.10;99.90;;;;;;5072684;28;20488;-70
2023/12/15 11:41:08;;;;;;;21.73;12.50;;;11.10;99.90;;;;;;5072427;28;20447;-69
2023/12/15 11:43:38;;;;;;;28.23;13.77;;;11.10;99.90;;;;;;5072482;28;20412;-69
2023/12/15 11:46:04;;;;;;;24.00;13.30;;;11.10;99.90;;;;;;5072526;28;20404;-69
2023/12/15 11:48:32;;;;;;;23.33;12.57;;;11.00;99.90;;;;;;5072409;28;20451;-69
2023/12/15 11:50:57;;;;;;;32.93;12.17;;;11.00;99.90;;;;;;5072143;28;20781;-70
2023/12/15 11:53:23;;;;;;;30.43;14.13;;;11.00;99.90;;;;;;5070906;28;20436;-70
2023/12/15 11:55:49;;;;;;;21.80;12.00;;;11.10;99.90;;;;;;5072432;28;20215;-70
2023/12/15 11:58:15;;;;;;;23.33;12.40;;;11.10;99.90;;;;;;5072318;28;20249;-71
2023/12/15 12:00:41;;;;;;;22.27;12.50;;;11.20;99.90;;;;;;5072044;28;20809;-70
2023/12/15 12:03:09;;;;;;;22.27;11.67;;;11.00;99.90;;;;;;5072189;28;20231;-70
2023/12/15 12:05:35;;;;;;;25.30;13.10;;;11.00;99.90;;;;;;5072027;28;20498;-70
2023/12/15 12:08:02;;;;;;;23.33;13.13;;;10.90;99.90;;;;;;5072205;28;20917;-69
2023/12/15 12:10:32;;;;;;;22.97;13.40;;;10.70;99.90;;;;;;5071998;28;20486;-69
2023/12/15 12:12:58;;;;;;;24.30;11.73;;;10.70;99.90;;;;;;5072131;28;20792;-69
2023/12/15 12:15:24;;;;;;;24.57;12.67;;;10.70;99.90;;;;;;5072177;28;20454;-69
2023/12/15 12:17:50;;;;;;;23.63;12.43;;;10.80;99.90;;;;;;5070842;28;20448;-69
2023/12/15 12:20:16;;;;;;;32.97;14.10;;;10.60;99.90;;;;;;5071888;28;20181;-70
2023/12/15 12:22:44;;;;;;;24.60;12.63;;;10.60;99.90;;;;;;5071851;28;20420;-70
2023/12/15 12:25:15;;;;;;;23.27;11.47;;;10.50;99.90;;;;;;5071992;28;20178;-71
2023/12/15 12:27:41;;;;;;;22.20;14.30;;;10.60;99.90;;;;;;5071890;28;20448;-69
2023/12/15 12:30:14;;;;;;;24.23;13.30;;;10.60;99.90;;;;;;5071802;28;20898;-69
2023/12/15 12:32:40;;;;;;;31.13;13.93;;;10.60;99.90;;;;;;5071658;28;20444;-70